sensor_id;sensor_type;location;lat;lon;timestamp;temperature;humidity
73509;SHT30;61750;55.036;73.312;2022-08-25T00:01:57;24.73;52.00
73509;SHT30;61750;55.036;73.312;2022-08-25T00:04:23;24.71;51.94
73509;SHT30;61750;55.036;73.312;2022-08-25T00:06:50;24.73;51.93
73509;SHT30;61750;55.036;73.312;2022-08-25T00:09:19;24.71;51.95
73509;SHT30;61750;55.036;73.312;2022-08-25T00:11:56;24.73;51.90
73509;SHT30;61750;55.036;73.312;2022-08-25T00:14:35;24.73;51.92
73509;SHT30;61750;55.036;73.312;2022-08-25T00:17:07;24.73;51.88
73509;SHT30;61750;55.036;73.312;2022-08-25T00:19:38;24.74;51.90
73509;SHT30;61750;55.036;73.312;2022-08-25T00:22:05;24.71;51.87
73509;SHT30;61750;55.036;73.312;2022-08-25T00:24:32;24.74;51.89
73509;SHT30;61750;55.036;73.312;2022-08-25T00:27:08;24.76;51.86
73509;SHT30;61750;55.036;73.312;2022-08-25T00:29:37;24.77;51.87
73509;SHT30;61750;55.036;73.312;2022-08-25T00:32:04;24.76;51.87
73509;SHT30;61750;55.036;73.312;2022-08-25T00:34:34;24.77;51.89
73509;SHT30;61750;55.036;73.312;2022-08-25T00:37:07;24.74;51.87
73509;SHT30;61750;55.036;73.312;2022-08-25T00:39:34;24.74;51.89
73509;SHT30;61750;55.036;73.312;2022-08-25T00:42:01;24.77;51.86
73509;SHT30;61750;55.036;73.312;2022-08-25T00:44:29;24.77;51.90
73509;SHT30;61750;55.036;73.312;2022-08-25T00:46:58;24.80;51.87
73509;SHT30;61750;55.036;73.312;2022-08-25T00:49:45;24.76;51.85
73509;SHT30;61750;55.036;73.312;2022-08-25T00:52:23;24.79;51.87
73509;SHT30;61750;55.036;73.312;2022-08-25T00:57:37;24.83;52.17
73509;SHT30;61750;55.036;73.312;2022-08-25T01:00:16;24.86;52.16
73509;SHT30;61750;55.036;73.312;2022-08-25T01:02:44;24.90;52.15
73509;SHT30;61750;55.036;73.312;2022-08-25T01:05:11;24.90;52.14
73509;SHT30;61750;55.036;73.312;2022-08-25T01:07:38;24.88;52.08
73509;SHT30;61750;55.036;73.312;2022-08-25T01:10:06;24.90;52.07
73509;SHT30;61750;55.036;73.312;2022-08-25T01:12:35;24.91;52.03
73509;SHT30;61750;55.036;73.312;2022-08-25T01:15:04;24.91;52.07
73509;SHT30;61750;55.036;73.312;2022-08-25T01:17:59;24.91;52.01
73509;SHT30;61750;55.036;73.312;2022-08-25T01:20:33;24.92;52.02
73509;SHT30;61750;55.036;73.312;2022-08-25T01:23:04;24.95;51.97
73509;SHT30;61750;55.036;73.312;2022-08-25T01:25:52;24.94;52.04
73509;SHT30;61750;55.036;73.312;2022-08-25T01:28:32;24.98;51.97
73509;SHT30;61750;55.036;73.312;2022-08-25T01:31:03;24.97;52.04
73509;SHT30;61750;55.036;73.312;2022-08-25T01:33:30;24.98;52.02
73509;SHT30;61750;55.036;73.312;2022-08-25T01:36:00;24.98;52.04
73509;SHT30;61750;55.036;73.312;2022-08-25T01:38:27;25.00;52.05
73509;SHT30;61750;55.036;73.312;2022-08-25T01:40:54;25.01;52.08
73509;SHT30;61750;55.036;73.312;2022-08-25T01:43:36;24.97;52.01
73509;SHT30;61750;55.036;73.312;2022-08-25T01:46:03;25.04;51.99
73509;SHT30;61750;55.036;73.312;2022-08-25T01:48:29;25.00;52.04
73509;SHT30;61750;55.036;73.312;2022-08-25T01:50:57;24.98;52.01
73509;SHT30;61750;55.036;73.312;2022-08-25T01:53:27;24.97;52.00
73509;SHT30;61750;55.036;73.312;2022-08-25T01:55:57;25.06;51.98
73509;SHT30;61750;55.036;73.312;2022-08-25T01:58:29;25.04;51.95
73509;SHT30;61750;55.036;73.312;2022-08-25T02:00:58;25.04;51.92
73509;SHT30;61750;55.036;73.312;2022-08-25T02:03:29;25.04;51.96
73509;SHT30;61750;55.036;73.312;2022-08-25T02:05:57;25.03;52.01
73509;SHT30;61750;55.036;73.312;2022-08-25T02:08:24;25.03;52.04
73509;SHT30;61750;55.036;73.312;2022-08-25T02:10:59;25.00;52.04
73509;SHT30;61750;55.036;73.312;2022-08-25T02:13:25;25.03;52.18
73509;SHT30;61750;55.036;73.312;2022-08-25T02:15:54;25.03;52.27
73509;SHT30;61750;55.036;73.312;2022-08-25T02:18:21;25.06;52.48
73509;SHT30;61750;55.036;73.312;2022-08-25T02:20:48;25.08;52.38
73509;SHT30;61750;55.036;73.312;2022-08-25T02:23:14;25.08;52.38
73509;SHT30;61750;55.036;73.312;2022-08-25T02:25:41;25.12;52.35
73509;SHT30;61750;55.036;73.312;2022-08-25T02:28:08;25.11;52.33
73509;SHT30;61750;55.036;73.312;2022-08-25T02:30:44;25.12;52.38
73509;SHT30;61750;55.036;73.312;2022-08-25T02:33:15;25.12;52.29
73509;SHT30;61750;55.036;73.312;2022-08-25T02:35:46;25.14;52.35
73509;SHT30;61750;55.036;73.312;2022-08-25T02:38:12;25.12;52.42
73509;SHT30;61750;55.036;73.312;2022-08-25T02:40:39;25.14;52.30
73509;SHT30;61750;55.036;73.312;2022-08-25T02:43:05;25.14;52.36
73509;SHT30;61750;55.036;73.312;2022-08-25T02:45:31;25.14;52.36
73509;SHT30;61750;55.036;73.312;2022-08-25T02:47:57;25.14;52.44
73509;SHT30;61750;55.036;73.312;2022-08-25T02:50:23;25.15;52.37
73509;SHT30;61750;55.036;73.312;2022-08-25T02:52:56;25.15;52.41
73509;SHT30;61750;55.036;73.312;2022-08-25T02:55:32;25.15;52.42
73509;SHT30;61750;55.036;73.312;2022-08-25T02:57:58;25.15;52.34
73509;SHT30;61750;55.036;73.312;2022-08-25T03:00:30;25.14;52.40
73509;SHT30;61750;55.036;73.312;2022-08-25T03:02:56;25.12;52.50
73509;SHT30;61750;55.036;73.312;2022-08-25T03:05:22;25.11;52.49
73509;SHT30;61750;55.036;73.312;2022-08-25T03:07:48;25.14;52.53
73509;SHT30;61750;55.036;73.312;2022-08-25T03:10:23;25.14;52.44
73509;SHT30;61750;55.036;73.312;2022-08-25T03:12:49;25.14;52.44
73509;SHT30;61750;55.036;73.312;2022-08-25T03:15:16;25.15;52.37
73509;SHT30;61750;55.036;73.312;2022-08-25T03:17:44;25.14;52.41
73509;SHT30;61750;55.036;73.312;2022-08-25T03:20:10;25.12;52.47
73509;SHT30;61750;55.036;73.312;2022-08-25T03:22:47;25.12;52.47
73509;SHT30;61750;55.036;73.312;2022-08-25T03:25:14;25.15;52.45
73509;SHT30;61750;55.036;73.312;2022-08-25T03:28:05;25.14;52.39
73509;SHT30;61750;55.036;73.312;2022-08-25T03:30:41;25.17;52.42
73509;SHT30;61750;55.036;73.312;2022-08-25T03:33:07;25.14;52.41
73509;SHT30;61750;55.036;73.312;2022-08-25T03:35:36;25.17;52.27
73509;SHT30;61750;55.036;73.312;2022-08-25T03:38:03;25.12;52.38
73509;SHT30;61750;55.036;73.312;2022-08-25T03:40:30;25.14;52.38
73509;SHT30;61750;55.036;73.312;2022-08-25T03:43:03;25.18;52.39
73509;SHT30;61750;55.036;73.312;2022-08-25T03:45:40;25.18;52.34
73509;SHT30;61750;55.036;73.312;2022-08-25T03:48:17;25.15;52.34
73509;SHT30;61750;55.036;73.312;2022-08-25T03:50:49;25.17;52.36
73509;SHT30;61750;55.036;73.312;2022-08-25T03:53:16;25.18;52.35
73509;SHT30;61750;55.036;73.312;2022-08-25T03:55:42;25.20;52.33
73509;SHT30;61750;55.036;73.312;2022-08-25T03:58:18;25.18;52.36
73509;SHT30;61750;55.036;73.312;2022-08-25T04:00:44;25.18;52.32
73509;SHT30;61750;55.036;73.312;2022-08-25T04:03:10;25.17;52.38
73509;SHT30;61750;55.036;73.312;2022-08-25T04:05:36;25.24;52.36
73509;SHT30;61750;55.036;73.312;2022-08-25T04:08:12;25.22;52.27
73509;SHT30;61750;55.036;73.312;2022-08-25T04:10:47;25.21;52.34
73509;SHT30;61750;55.036;73.312;2022-08-25T04:13:13;25.18;52.34
73509;SHT30;61750;55.036;73.312;2022-08-25T04:15:47;25.22;52.38
73509;SHT30;61750;55.036;73.312;2022-08-25T04:18:14;25.22;52.42
73509;SHT30;61750;55.036;73.312;2022-08-25T04:20:41;25.24;52.33
73509;SHT30;61750;55.036;73.312;2022-08-25T04:23:13;25.25;52.38
73509;SHT30;61750;55.036;73.312;2022-08-25T04:25:44;25.24;52.57
73509;SHT30;61750;55.036;73.312;2022-08-25T04:28:10;25.24;50.69
73509;SHT30;61750;55.036;73.312;2022-08-25T04:30:41;25.14;48.70
73509;SHT30;61750;55.036;73.312;2022-08-25T04:33:07;25.06;48.41
73509;SHT30;61750;55.036;73.312;2022-08-25T04:35:34;24.95;47.94
73509;SHT30;61750;55.036;73.312;2022-08-25T04:38:00;24.94;47.35
73509;SHT30;61750;55.036;73.312;2022-08-25T04:40:27;24.87;47.27
73509;SHT30;61750;55.036;73.312;2022-08-25T04:42:53;24.79;47.65
73509;SHT30;61750;55.036;73.312;2022-08-25T04:45:19;24.73;47.28
73509;SHT30;61750;55.036;73.312;2022-08-25T04:47:46;24.73;47.50
73509;SHT30;61750;55.036;73.312;2022-08-25T04:50:12;24.71;48.73
73509;SHT30;61750;55.036;73.312;2022-08-25T04:52:38;24.77;48.49
73509;SHT30;61750;55.036;73.312;2022-08-25T04:55:04;24.76;47.97
73509;SHT30;61750;55.036;73.312;2022-08-25T04:57:30;24.73;47.79
73509;SHT30;61750;55.036;73.312;2022-08-25T04:59:57;24.67;47.01
73509;SHT30;61750;55.036;73.312;2022-08-25T05:02:23;24.67;47.45
73509;SHT30;61750;55.036;73.312;2022-08-25T05:04:51;24.67;47.43
73509;SHT30;61750;55.036;73.312;2022-08-25T05:07:17;24.67;48.32
73509;SHT30;61750;55.036;73.312;2022-08-25T05:09:43;24.69;48.32
73509;SHT30;61750;55.036;73.312;2022-08-25T05:12:09;24.67;48.50
73509;SHT30;61750;55.036;73.312;2022-08-25T05:14:44;24.74;49.86
73509;SHT30;61750;55.036;73.312;2022-08-25T05:17:11;24.77;49.78
73509;SHT30;61750;55.036;73.312;2022-08-25T05:19:36;24.74;48.25
73509;SHT30;61750;55.036;73.312;2022-08-25T05:22:03;24.77;48.56
73509;SHT30;61750;55.036;73.312;2022-08-25T05:24:33;24.79;48.77
73509;SHT30;61750;55.036;73.312;2022-08-25T05:27:09;24.76;48.16
73509;SHT30;61750;55.036;73.312;2022-08-25T05:29:36;24.76;48.33
73509;SHT30;61750;55.036;73.312;2022-08-25T05:32:02;24.79;48.79
73509;SHT30;61750;55.036;73.312;2022-08-25T05:34:38;24.79;47.98
73509;SHT30;61750;55.036;73.312;2022-08-25T05:37:04;24.77;49.03
73509;SHT30;61750;55.036;73.312;2022-08-25T05:39:30;24.79;49.67
73509;SHT30;61750;55.036;73.312;2022-08-25T05:41:58;24.77;47.14
73509;SHT30;61750;55.036;73.312;2022-08-25T05:44:24;24.77;46.14
73509;SHT30;61750;55.036;73.312;2022-08-25T05:46:51;24.76;47.44
73509;SHT30;61750;55.036;73.312;2022-08-25T05:49:17;24.74;47.53
73509;SHT30;61750;55.036;73.312;2022-08-25T05:51:43;24.77;47.86
73509;SHT30;61750;55.036;73.312;2022-08-25T05:54:15;24.81;47.62
73509;SHT30;61750;55.036;73.312;2022-08-25T05:56:41;24.74;44.28
73509;SHT30;61750;55.036;73.312;2022-08-25T05:59:15;24.71;43.84
73509;SHT30;61750;55.036;73.312;2022-08-25T06:01:41;24.73;44.35
73509;SHT30;61750;55.036;73.312;2022-08-25T06:04:26;24.74;44.87
73509;SHT30;61750;55.036;73.312;2022-08-25T06:06:56;24.76;45.90
73509;SHT30;61750;55.036;73.312;2022-08-25T06:09:28;24.77;46.30
73509;SHT30;61750;55.036;73.312;2022-08-25T06:11:54;24.76;45.86
73509;SHT30;61750;55.036;73.312;2022-08-25T06:14:20;24.77;46.04
73509;SHT30;61750;55.036;73.312;2022-08-25T06:16:47;24.74;46.16
73509;SHT30;61750;55.036;73.312;2022-08-25T06:19:21;24.73;46.53
73509;SHT30;61750;55.036;73.312;2022-08-25T06:21:48;24.73;46.70
73509;SHT30;61750;55.036;73.312;2022-08-25T06:24:15;24.76;45.82
73509;SHT30;61750;55.036;73.312;2022-08-25T06:26:42;24.74;44.00
73509;SHT30;61750;55.036;73.312;2022-08-25T06:29:16;24.76;45.01
73509;SHT30;61750;55.036;73.312;2022-08-25T06:31:42;24.76;45.83
73509;SHT30;61750;55.036;73.312;2022-08-25T06:34:15;24.74;46.14
73509;SHT30;61750;55.036;73.312;2022-08-25T06:36:42;24.79;46.37
73509;SHT30;61750;55.036;73.312;2022-08-25T06:39:16;24.77;46.74
73509;SHT30;61750;55.036;73.312;2022-08-25T06:41:42;24.80;46.80
73509;SHT30;61750;55.036;73.312;2022-08-25T06:44:15;24.81;46.78
73509;SHT30;61750;55.036;73.312;2022-08-25T06:46:41;24.81;46.84
73509;SHT30;61750;55.036;73.312;2022-08-25T06:49:15;24.86;47.61
73509;SHT30;61750;55.036;73.312;2022-08-25T06:51:41;24.86;47.35
73509;SHT30;61750;55.036;73.312;2022-08-25T06:54:15;24.86;46.11
73509;SHT30;61750;55.036;73.312;2022-08-25T06:56:41;24.84;46.26
73509;SHT30;61750;55.036;73.312;2022-08-25T06:59:15;24.83;43.77
73509;SHT30;61750;55.036;73.312;2022-08-25T07:01:42;24.83;42.84
73509;SHT30;61750;55.036;73.312;2022-08-25T07:04:15;24.84;42.77
73509;SHT30;61750;55.036;73.312;2022-08-25T07:06:41;24.84;43.62
73509;SHT30;61750;55.036;73.312;2022-08-25T07:09:16;24.86;43.97
73509;SHT30;61750;55.036;73.312;2022-08-25T07:11:42;24.87;44.54
73509;SHT30;61750;55.036;73.312;2022-08-25T07:14:15;24.88;44.54
73509;SHT30;61750;55.036;73.312;2022-08-25T07:16:42;24.91;45.21
73509;SHT30;61750;55.036;73.312;2022-08-25T07:19:15;24.92;45.38
73509;SHT30;61750;55.036;73.312;2022-08-25T07:21:54;24.88;45.01
73509;SHT30;61750;55.036;73.312;2022-08-25T07:24:21;24.91;44.97
73509;SHT30;61750;55.036;73.312;2022-08-25T07:26:47;24.91;43.63
73509;SHT30;61750;55.036;73.312;2022-08-25T07:29:21;24.92;44.47
73509;SHT30;61750;55.036;73.312;2022-08-25T07:31:48;24.91;44.09
73509;SHT30;61750;55.036;73.312;2022-08-25T07:34:15;24.92;44.10
73509;SHT30;61750;55.036;73.312;2022-08-25T07:37:00;24.95;43.95
73509;SHT30;61750;55.036;73.312;2022-08-25T07:39:29;24.92;44.02
73509;SHT30;61750;55.036;73.312;2022-08-25T07:42:06;24.94;44.27
73509;SHT30;61750;55.036;73.312;2022-08-25T07:44:32;24.92;44.50
73509;SHT30;61750;55.036;73.312;2022-08-25T07:47:08;24.91;44.79
73509;SHT30;61750;55.036;73.312;2022-08-25T07:49:34;24.94;44.69
73509;SHT30;61750;55.036;73.312;2022-08-25T07:52:00;24.94;44.51
73509;SHT30;61750;55.036;73.312;2022-08-25T07:54:26;25.01;44.31
73509;SHT30;61750;55.036;73.312;2022-08-25T07:56:58;25.01;44.27
73509;SHT30;61750;55.036;73.312;2022-08-25T07:59:29;25.04;44.03
73509;SHT30;61750;55.036;73.312;2022-08-25T08:01:56;25.03;44.27
73509;SHT30;61750;55.036;73.312;2022-08-25T08:04:22;25.01;44.54
73509;SHT30;61750;55.036;73.312;2022-08-25T08:06:48;25.04;44.09
73509;SHT30;61750;55.036;73.312;2022-08-25T08:09:16;25.06;44.06
73509;SHT30;61750;55.036;73.312;2022-08-25T08:11:43;25.04;44.21
73509;SHT30;61750;55.036;73.312;2022-08-25T08:14:15;25.07;44.18
73509;SHT30;61750;55.036;73.312;2022-08-25T08:16:41;25.08;44.33
73509;SHT30;61750;55.036;73.312;2022-08-25T08:19:16;25.06;45.01
73509;SHT30;61750;55.036;73.312;2022-08-25T08:21:42;25.08;45.12
73509;SHT30;61750;55.036;73.312;2022-08-25T08:24:15;25.07;45.05
73509;SHT30;61750;55.036;73.312;2022-08-25T08:26:41;25.08;45.06
73509;SHT30;61750;55.036;73.312;2022-08-25T08:29:18;25.11;45.09
73509;SHT30;61750;55.036;73.312;2022-08-25T08:31:46;25.08;44.98
73509;SHT30;61750;55.036;73.312;2022-08-25T08:34:23;25.10;45.29
73509;SHT30;61750;55.036;73.312;2022-08-25T08:36:49;25.11;45.55
73509;SHT30;61750;55.036;73.312;2022-08-25T08:39:16;25.17;46.12
73509;SHT30;61750;55.036;73.312;2022-08-25T08:50:27;25.17;45.60
73509;SHT30;61750;55.036;73.312;2022-08-25T08:55:38;25.20;45.75
73509;SHT30;61750;55.036;73.312;2022-08-25T08:58:13;25.20;45.83
73509;SHT30;61750;55.036;73.312;2022-08-25T09:00:47;25.20;45.86
73509;SHT30;61750;55.036;73.312;2022-08-25T09:03:42;25.20;46.29
73509;SHT30;61750;55.036;73.312;2022-08-25T09:06:18;25.20;46.27
73509;SHT30;61750;55.036;73.312;2022-08-25T09:08:45;25.20;46.26
73509;SHT30;61750;55.036;73.312;2022-08-25T09:11:22;25.20;46.38
73509;SHT30;61750;55.036;73.312;2022-08-25T09:28:31;25.28;46.62
73509;SHT30;61750;55.036;73.312;2022-08-25T09:31:16;25.27;46.45
73509;SHT30;61750;55.036;73.312;2022-08-25T09:33:43;25.28;46.56
73509;SHT30;61750;55.036;73.312;2022-08-25T09:36:10;25.27;46.61
73509;SHT30;61750;55.036;73.312;2022-08-25T09:38:36;25.25;46.68
73509;SHT30;61750;55.036;73.312;2022-08-25T09:41:03;25.27;46.85
73509;SHT30;61750;55.036;73.312;2022-08-25T09:46:00;25.27;47.01
73509;SHT30;61750;55.036;73.312;2022-08-25T09:48:33;25.30;46.99
73509;SHT30;61750;55.036;73.312;2022-08-25T09:51:38;25.30;46.78
73509;SHT30;61750;55.036;73.312;2022-08-25T09:54:20;25.32;46.81
73509;SHT30;61750;55.036;73.312;2022-08-25T09:56:54;25.32;46.90
73509;SHT30;61750;55.036;73.312;2022-08-25T09:59:25;25.32;48.83
73509;SHT30;61750;55.036;73.312;2022-08-25T10:02:03;25.37;47.41
73509;SHT30;61750;55.036;73.312;2022-08-25T10:04:40;25.39;48.44
73509;SHT30;61750;55.036;73.312;2022-08-25T10:07:36;25.34;48.09
73509;SHT30;61750;55.036;73.312;2022-08-25T10:10:16;25.37;47.74
73509;SHT30;61750;55.036;73.312;2022-08-25T10:12:45;25.39;47.12
73509;SHT30;61750;55.036;73.312;2022-08-25T10:15:35;25.41;46.81
73509;SHT30;61750;55.036;73.312;2022-08-25T10:18:30;25.41;46.67
73509;SHT30;61750;55.036;73.312;2022-08-25T10:21:13;25.44;46.61
73509;SHT30;61750;55.036;73.312;2022-08-25T10:23:49;25.44;46.62
73509;SHT30;61750;55.036;73.312;2022-08-25T10:26:27;25.41;46.53
73509;SHT30;61750;55.036;73.312;2022-08-25T10:32:04;25.39;46.32
73509;SHT30;61750;55.036;73.312;2022-08-25T10:34:48;25.42;46.42
73509;SHT30;61750;55.036;73.312;2022-08-25T10:37:38;25.42;46.56
73509;SHT30;61750;55.036;73.312;2022-08-25T10:40:22;25.45;46.34
73509;SHT30;61750;55.036;73.312;2022-08-25T10:43:15;25.39;46.29
73509;SHT30;61750;55.036;73.312;2022-08-25T10:45:48;25.41;46.37
73509;SHT30;61750;55.036;73.312;2022-08-25T10:51:41;25.39;46.32
73509;SHT30;61750;55.036;73.312;2022-08-25T10:54:18;25.39;46.41
73509;SHT30;61750;55.036;73.312;2022-08-25T10:57:21;25.41;47.13
73509;SHT30;61750;55.036;73.312;2022-08-25T10:59:59;25.44;46.94
73509;SHT30;61750;55.036;73.312;2022-08-25T11:10:57;25.48;45.70
73509;SHT30;61750;55.036;73.312;2022-08-25T11:16:01;25.45;45.95
73509;SHT30;61750;55.036;73.312;2022-08-25T11:18:29;25.48;45.81
73509;SHT30;61750;55.036;73.312;2022-08-25T11:21:13;25.49;45.39
73509;SHT30;61750;55.036;73.312;2022-08-25T11:23:46;25.52;44.96
73509;SHT30;61750;55.036;73.312;2022-08-25T11:26:23;25.54;44.80
73509;SHT30;61750;55.036;73.312;2022-08-25T11:31:38;25.54;44.70
73509;SHT30;61750;55.036;73.312;2022-08-25T11:34:09;25.55;44.84
73509;SHT30;61750;55.036;73.312;2022-08-25T11:36:37;25.52;45.06
73509;SHT30;61750;55.036;73.312;2022-08-25T11:50:53;25.58;45.27
73509;SHT30;61750;55.036;73.312;2022-08-25T11:52:45;25.59;45.28
73509;SHT30;61750;55.036;73.312;2022-08-25T11:55:44;25.61;45.80
73509;SHT30;61750;55.036;73.312;2022-08-25T12:00:54;25.64;45.27
73509;SHT30;61750;55.036;73.312;2022-08-25T12:06:18;25.62;44.54
73509;SHT30;61750;55.036;73.312;2022-08-25T12:27:03;25.68;43.98
73509;SHT30;61750;55.036;73.312;2022-08-25T12:29:52;25.68;44.10
73509;SHT30;61750;55.036;73.312;2022-08-25T12:32:37;25.68;45.09
73509;SHT30;61750;55.036;73.312;2022-08-25T12:35:22;25.68;44.88
73509;SHT30;61750;55.036;73.312;2022-08-25T12:45:48;25.75;45.39
73509;SHT30;61750;55.036;73.312;2022-08-25T12:48:42;25.78;45.61
73509;SHT30;61750;55.036;73.312;2022-08-25T12:51:19;25.85;45.81
73509;SHT30;61750;55.036;73.312;2022-08-25T12:53:56;25.88;45.97
73509;SHT30;61750;55.036;73.312;2022-08-25T12:56:37;25.90;46.03
73509;SHT30;61750;55.036;73.312;2022-08-25T12:59:31;25.95;46.03
73509;SHT30;61750;55.036;73.312;2022-08-25T13:07:58;26.03;46.44
73509;SHT30;61750;55.036;73.312;2022-08-25T13:10:45;26.06;46.42
73509;SHT30;61750;55.036;73.312;2022-08-25T13:13:46;26.12;46.96
73509;SHT30;61750;55.036;73.312;2022-08-25T13:16:15;26.07;46.65
73509;SHT30;61750;55.036;73.312;2022-08-25T13:18:41;26.10;46.69
73509;SHT30;61750;55.036;73.312;2022-08-25T13:21:22;26.10;46.54
73509;SHT30;61750;55.036;73.312;2022-08-25T13:23:52;26.12;46.67
73509;SHT30;61750;55.036;73.312;2022-08-25T13:26:29;26.10;46.69
73509;SHT30;61750;55.036;73.312;2022-08-25T13:28:57;26.10;46.95
73509;SHT30;61750;55.036;73.312;2022-08-25T13:31:24;26.12;46.36
73509;SHT30;61750;55.036;73.312;2022-08-25T13:34:07;26.09;46.02
73509;SHT30;61750;55.036;73.312;2022-08-25T13:36:41;26.12;46.04
73509;SHT30;61750;55.036;73.312;2022-08-25T13:39:28;26.10;46.07
73509;SHT30;61750;55.036;73.312;2022-08-25T13:41:59;26.09;46.34
73509;SHT30;61750;55.036;73.312;2022-08-25T13:44:28;26.06;46.02
73509;SHT30;61750;55.036;73.312;2022-08-25T13:47:11;26.07;46.26
73509;SHT30;61750;55.036;73.312;2022-08-25T13:49:40;26.07;45.98
73509;SHT30;61750;55.036;73.312;2022-08-25T13:52:16;26.05;46.08
73509;SHT30;61750;55.036;73.312;2022-08-25T13:54:46;26.03;46.29
73509;SHT30;61750;55.036;73.312;2022-08-25T13:57:21;26.06;46.54
73509;SHT30;61750;55.036;73.312;2022-08-25T14:00:07;26.05;46.55
73509;SHT30;61750;55.036;73.312;2022-08-25T14:05:07;26.03;46.59
73509;SHT30;61750;55.036;73.312;2022-08-25T14:07:33;26.05;46.68
73509;SHT30;61750;55.036;73.312;2022-08-25T14:10:03;26.00;46.85
73509;SHT30;61750;55.036;73.312;2022-08-25T14:12:41;25.96;46.92
73509;SHT30;61750;55.036;73.312;2022-08-25T14:18:07;25.96;47.73
73509;SHT30;61750;55.036;73.312;2022-08-25T14:20:36;25.97;47.76
73509;SHT30;61750;55.036;73.312;2022-08-25T14:23:08;25.97;48.17
73509;SHT30;61750;55.036;73.312;2022-08-25T14:25:42;25.97;48.59
73509;SHT30;61750;55.036;73.312;2022-08-25T14:28:15;25.99;48.66
73509;SHT30;61750;55.036;73.312;2022-08-25T14:30:46;25.97;48.61
73509;SHT30;61750;55.036;73.312;2022-08-25T14:33:15;25.99;48.96
73509;SHT30;61750;55.036;73.312;2022-08-25T14:35:45;26.00;49.22
73509;SHT30;61750;55.036;73.312;2022-08-25T14:38:22;26.05;49.16
73509;SHT30;61750;55.036;73.312;2022-08-25T14:40:48;26.00;49.31
73509;SHT30;61750;55.036;73.312;2022-08-25T14:43:14;25.99;49.85
73509;SHT30;61750;55.036;73.312;2022-08-25T14:45:42;25.96;49.85
73509;SHT30;61750;55.036;73.312;2022-08-25T14:48:39;25.92;50.57
73509;SHT30;61750;55.036;73.312;2022-08-25T14:51:06;25.92;50.48
73509;SHT30;61750;55.036;73.312;2022-08-25T14:53:33;25.88;50.85
73509;SHT30;61750;55.036;73.312;2022-08-25T14:56:03;25.85;50.96
73509;SHT30;61750;55.036;73.312;2022-08-25T14:58:29;25.90;50.60
73509;SHT30;61750;55.036;73.312;2022-08-25T15:01:01;25.93;50.49
73509;SHT30;61750;55.036;73.312;2022-08-25T15:03:37;25.95;50.25
73509;SHT30;61750;55.036;73.312;2022-08-25T15:06:15;25.96;50.17
73509;SHT30;61750;55.036;73.312;2022-08-25T15:08:42;25.99;50.07
73509;SHT30;61750;55.036;73.312;2022-08-25T15:11:31;26.00;50.00
73509;SHT30;61750;55.036;73.312;2022-08-25T15:14:09;26.02;49.90
73509;SHT30;61750;55.036;73.312;2022-08-25T15:16:38;26.02;49.93
73509;SHT30;61750;55.036;73.312;2022-08-25T15:19:07;26.02;49.88
73509;SHT30;61750;55.036;73.312;2022-08-25T15:21:36;26.03;50.00
73509;SHT30;61750;55.036;73.312;2022-08-25T15:24:04;26.09;49.99
73509;SHT30;61750;55.036;73.312;2022-08-25T15:26:32;26.05;49.78
73509;SHT30;61750;55.036;73.312;2022-08-25T15:28:59;26.05;49.71
73509;SHT30;61750;55.036;73.312;2022-08-25T15:31:29;26.02;49.67
73509;SHT30;61750;55.036;73.312;2022-08-25T15:34:06;26.02;49.65
73509;SHT30;61750;55.036;73.312;2022-08-25T15:36:34;25.99;49.65
73509;SHT30;61750;55.036;73.312;2022-08-25T15:39:01;25.96;49.56
73509;SHT30;61750;55.036;73.312;2022-08-25T15:41:39;25.96;49.58
73509;SHT30;61750;55.036;73.312;2022-08-25T15:44:06;25.96;49.64
73509;SHT30;61750;55.036;73.312;2022-08-25T15:46:35;25.96;49.65
73509;SHT30;61750;55.036;73.312;2022-08-25T15:49:02;25.93;49.74
73509;SHT30;61750;55.036;73.312;2022-08-25T15:51:29;25.90;49.83
73509;SHT30;61750;55.036;73.312;2022-08-25T15:53:56;25.90;49.87
73509;SHT30;61750;55.036;73.312;2022-08-25T15:56:23;25.88;49.95
73509;SHT30;61750;55.036;73.312;2022-08-25T15:58:50;25.89;49.98
73509;SHT30;61750;55.036;73.312;2022-08-25T16:01:20;25.89;50.07
73509;SHT30;61750;55.036;73.312;2022-08-25T16:03:46;25.86;50.09
73509;SHT30;61750;55.036;73.312;2022-08-25T16:06:23;25.86;50.16
73509;SHT30;61750;55.036;73.312;2022-08-25T16:08:50;25.85;50.17
73509;SHT30;61750;55.036;73.312;2022-08-25T16:11:20;25.85;50.23
73509;SHT30;61750;55.036;73.312;2022-08-25T16:13:47;25.84;50.25
73509;SHT30;61750;55.036;73.312;2022-08-25T16:16:17;25.81;50.29
73509;SHT30;61750;55.036;73.312;2022-08-25T16:18:44;25.82;50.26
73509;SHT30;61750;55.036;73.312;2022-08-25T16:21:16;25.79;50.32
73509;SHT30;61750;55.036;73.312;2022-08-25T16:23:59;25.81;50.37
73509;SHT30;61750;55.036;73.312;2022-08-25T16:26:26;25.79;50.51
73509;SHT30;61750;55.036;73.312;2022-08-25T16:28:53;25.79;50.50
73509;SHT30;61750;55.036;73.312;2022-08-25T16:31:19;25.81;50.51
73509;SHT30;61750;55.036;73.312;2022-08-25T16:33:50;25.76;50.50
73509;SHT30;61750;55.036;73.312;2022-08-25T16:36:19;25.78;50.52
73509;SHT30;61750;55.036;73.312;2022-08-25T16:38:47;25.76;50.49
73509;SHT30;61750;55.036;73.312;2022-08-25T16:41:22;25.78;50.50
73509;SHT30;61750;55.036;73.312;2022-08-25T16:43:53;25.75;50.47
73509;SHT30;61750;55.036;73.312;2022-08-25T16:46:20;25.75;50.54
73509;SHT30;61750;55.036;73.312;2022-08-25T16:48:52;25.74;50.59
73509;SHT30;61750;55.036;73.312;2022-08-25T16:51:25;25.74;50.64
73509;SHT30;61750;55.036;73.312;2022-08-25T16:53:51;25.75;50.56
73509;SHT30;61750;55.036;73.312;2022-08-25T16:56:36;25.76;50.63
73509;SHT30;61750;55.036;73.312;2022-08-25T16:59:03;25.74;50.68
73509;SHT30;61750;55.036;73.312;2022-08-25T17:01:31;25.74;50.73
73509;SHT30;61750;55.036;73.312;2022-08-25T17:04:04;25.74;50.73
73509;SHT30;61750;55.036;73.312;2022-08-25T17:06:32;25.71;50.81
73509;SHT30;61750;55.036;73.312;2022-08-25T17:08:59;25.75;50.82
73509;SHT30;61750;55.036;73.312;2022-08-25T17:11:28;25.72;50.98
73509;SHT30;61750;55.036;73.312;2022-08-25T17:13:57;25.69;50.96
73509;SHT30;61750;55.036;73.312;2022-08-25T17:16:26;25.69;51.09
73509;SHT30;61750;55.036;73.312;2022-08-25T17:18:55;25.71;51.17
73509;SHT30;61750;55.036;73.312;2022-08-25T17:21:24;25.68;51.19
73509;SHT30;61750;55.036;73.312;2022-08-25T17:23:53;25.69;51.27
73509;SHT30;61750;55.036;73.312;2022-08-25T17:26:21;25.71;51.33
73509;SHT30;61750;55.036;73.312;2022-08-25T17:28:48;25.68;51.35